Date,TemperatureHighF,TemperatureAvgF,TemperatureLowF,DewpointHighF,DewpointAvgF,DewpointLowF,HumidityHigh,HumidityAvg,HumidityLow,PressureMaxIn,PressureMinIn,WindSpeedMaxMPH,WindSpeedAvgMPH,GustSpeedMaxMPH,PrecipitationSumIn
2013-1-1,40,33,28,36,31,27,97,93,83,30.50,30.35,0,0,0,0.00
2013-1-2,42,33,28,36,29,25,96,86,69,30.35,30.19,1,0,0,0.00
2013-1-3,43,33,26,35,29,25,96,85,59,30.20,30.10,2,0,0,0.00
2013-1-4,48,33,-27,47,23,-100,96,84,93,30.34,30.16,3,0,0,0.00
2013-1-5,44,41,39,41,39,37,96,91,83,30.21,30.11,2,0,0,0.00
2013-1-6,45,41,39,42,40,38,96,95,88,30.18,29.98,4,1,0,0.00
2013-1-7,49,45,40,48,44,39,100,94,89,30.15,29.80,7,4,0,0.00
2013-1-8,52,46,41,50,45,40,100,94,89,30.15,29.72,10,4,0,0.00
2013-1-9,49,40,33,48,39,32,97,97,96,29.95,29.67,8,2,0,0.00
2013-1-10,37,34,30,36,33,28,97,97,96,30.11,29.94,1,0,0,0.00
2013-1-11,33,28,24,32,27,23,97,96,96,30.33,30.11,0,0,0,0.00
2013-1-12,34,27,23,31,26,22,96,93,81,30.45,30.32,1,0,0,0.00
2013-1-13,34,27,21,30,25,20,96,92,80,30.50,30.45,0,0,0,0.00
2013-1-14,35,33,31,33,31,29,95,93,89,30.57,30.47,1,0,0,0.00
2013-1-15,41,34,29,37,32,28,96,92,80,30.71,30.57,0,0,0,0.00
2013-1-16,40,31,25,37,30,24,96,94,87,30.68,30.52,0,0,0,0.00
2013-1-17,36,31,28,35,30,27,97,96,95,30.53,30.30,1,0,0,0.00
2013-1-18,35,32,30,34,31,29,97,96,96,30.35,30.27,0,0,0,0.00
2013-1-19,34,32,29,33,31,28,97,96,96,30.39,30.34,0,0,0,0.00
2013-1-20,37,32,30,36,31,29,97,96,95,30.40,30.27,0,0,0,0.00
2013-1-21,34,31,28,33,30,27,97,96,96,30.28,30.14,0,0,0,0.00
2013-1-22,37,32,28,36,31,27,97,96,96,30.16,29.91,0,0,0,0.00
2013-1-23,41,38,35,40,37,33,97,94,81,30.12,29.85,3,0,0,0.00
2013-1-24,45,41,39,43,40,38,97,94,83,30.21,30.05,3,0,0,0.00
2013-1-25,49,44,39,47,42,38,97,95,92,30.06,29.92,3,0,0,0.00
2013-1-26,43,41,39,42,40,38,97,96,94,30.03,29.88,3,1,0,0.00
2013-1-27,41,40,39,40,39,38,97,95,93,30.05,29.99,4,1,0,0.00
2013-1-28,41,40,38,40,39,37,97,97,97,30.09,30.00,3,1,0,0.00
2013-1-29,46,44,41,45,43,40,97,96,96,30.33,30.08,4,1,0,0.00
2013-1-30,48,46,43,47,45,42,96,96,95,30.38,30.32,3,1,0,0.00
2013-1-31,48,46,45,47,45,44,97,95,93,30.37,30.29,5,2,0,0.00
2013-2-1,49,44,39,48,43,38,97,95,90,30.41,30.32,1,0,0,0.00
2013-2-2,42,40,38,41,39,37,97,96,96,30.38,30.25,1,0,0,0.00
2013-2-3,47,43,38,46,41,37,97,96,91,30.30,30.20,3,1,0,0.00
2013-2-4,49,45,43,45,43,42,97,93,81,30.21,29.89,2,0,0,0.00
2013-2-5,50,45,43,45,43,41,97,92,80,29.93,29.84,7,3,0,0.00
2013-2-6,50,45,43,43,42,41,95,89,74,30.05,29.79,6,3,0,0.00
2013-2-7,48,42,34,42,38,32,95,85,66,30.19,29.79,6,2,0,0.00
2013-2-8,44,37,30,40,35,29,97,91,77,30.32,30.19,0,0,0,0.00
2013-2-9,44,41,39,42,40,37,97,94,88,30.34,30.26,1,0,0,0.00
2013-2-10,45,39,33,42,37,32,97,93,79,30.38,30.32,0,0,0,0.00
2013-2-11,46,42,39,43,40,38,97,92,82,30.37,30.33,2,0,0,0.00
2013-2-12,49,46,43,47,44,41,97,95,91,30.41,30.28,8,2,0,0.00
2013-2-13,48,44,42,46,43,41,97,96,92,30.50,30.29,5,0,0,0.00
2013-2-14,47,44,42,45,43,41,97,96,91,30.55,30.49,3,0,0,0.00
2013-2-15,55,44,39,48,42,38,97,92,74,30.55,30.18,1,0,0,0.00
2013-2-16,52,43,37,46,41,36,97,93,71,30.20,30.10,6,2,0,0.00
2013-2-17,46,41,38,42,39,37,97,93,81,30.25,30.11,3,0,0,0.00
2013-2-18,46,41,37,41,38,36,96,90,76,30.12,29.76,4,0,0,0.00
2013-2-19,49,41,36,39,37,34,94,84,63,30.01,29.74,2,0,0,0.00
2013-2-20,44,39,34,41,37,32,96,92,83,30.05,30.00,4,1,0,0.00
2013-2-21,43,41,38,41,39,37,97,94,88,30.06,30.01,6,3,0,0.00
2013-2-22,45,42,39,43,40,35,100,91,82,30.05,29.68,10,5,0,0.00
2013-2-23,47,42,38,41,38,35,93,85,70,30.34,29.89,4,1,0,0.00
2013-2-24,47,44,40,40,38,36,88,79,72,30.34,29.91,5,3,0,0.00
2013-2-25,50,43,38,41,38,34,94,83,60,30.27,29.85,7,3,0,0.00
2013-2-26,47,42,34,38,35,32,94,79,62,30.32,30.16,5,2,0,0.00
2013-2-27,49,43,39,44,41,38,97,93,79,30.27,30.16,3,0,0,0.00
2013-2-28,51,46,41,50,44,40,97,96,95,30.28,30.15,5,1,0,0.00
2013-3-1,56,52,50,52,50,49,96,92,85,30.33,30.24,7,4,0,0.00
2013-3-2,56,49,38,50,46,37,96,89,78,30.24,30.03,7,2,0,0.00
2013-3-3,48,40,34,40,36,32,96,87,60,30.27,30.16,2,0,0,0.00
2013-3-4,53,40,29,36,31,28,96,75,45,30.27,29.88,1,0,0,0.00
2013-3-5,51,45,41,41,35,28,91,68,51,29.89,29.68,2,0,0,0.00
2013-3-6,43,41,39,42,40,37,100,94,90,29.86,29.55,4,0,0,0.00
2013-3-7,50,43,38,46,41,37,96,93,76,30.06,29.86,3,0,0,0.00
2013-3-8,51,40,32,45,37,31,97,90,71,30.20,30.04,1,0,0,0.00
2013-3-9,53,41,31,43,36,30,96,86,60,30.46,30.20,2,0,0,0.00
2013-3-10,48,42,36,44,39,34,95,90,75,30.46,30.39,2,0,0,0.00
2013-3-11,51,46,41,46,43,40,96,90,76,30.41,30.13,2,0,0,0.00
2013-3-12,54,51,46,51,48,45,96,91,79,30.13,30.03,8,5,0,0.00
2013-3-13,51,50,50,50,49,48,97,94,91,30.17,30.06,8,3,0,0.00
2013-3-14,52,49,47,50,47,45,100,94,84,30.11,29.99,4,2,0,0.00
2013-3-15,59,51,47,52,49,45,96,90,76,30.17,30.09,5,2,0,0.00
2013-3-16,50,46,39,46,43,36,92,88,76,30.10,29.85,8,3,0,0.00
2013-3-17,49,41,37,39,37,35,95,85,64,30.16,29.93,6,1,0,0.00
2013-3-18,51,43,37,44,38,34,96,84,64,30.21,30.07,6,2,0,0.00
2013-3-19,57,41,34,42,37,33,95,86,44,30.21,29.57,5,1,0,0.00
2013-3-20,50,45,37,48,42,34,97,89,76,29.98,29.36,10,4,0,0.00
2013-3-21,46,39,36,40,36,35,95,89,70,30.19,29.98,4,1,0,0.00
2013-3-22,46,38,33,39,34,30,96,85,61,30.34,30.18,4,0,0,0.00
2013-3-23,50,39,32,35,30,27,92,74,42,30.37,30.27,2,0,0,0.00
2013-3-24,55,40,30,37,32,28,93,74,42,30.27,30.09,2,0,0,0.00
2013-3-25,60,46,34,37,32,29,86,62,38,30.10,29.90,2,0,0,0.00
2013-3-26,60,49,44,44,40,36,82,70,46,29.99,29.92,3,0,0,0.00
2013-3-27,57,49,44,49,43,39,94,82,62,29.95,29.90,1,0,0,0.00
2013-3-28,61,50,43,51,46,42,96,85,62,30.11,29.95,3,0,0,0.00
2013-3-29,64,51,42,50,45,41,95,81,56,30.22,30.11,3,0,0,0.00
2013-3-30,67,51,39,49,43,-100,96,78,47,30.22,30.04,2,0,0,0.00
2013-3-31,71,54,40,50,45,38,95,74,45,30.04,29.87,2,0,0,0.00
2013-4-1,61,52,47,51,48,44,95,84,66,30.12,29.92,5,2,0,0.00
2013-4-2,57,52,48,50,48,45,92,85,76,30.16,30.11,4,1,0,0.00
2013-4-3,62,53,45,50,46,43,96,80,53,30.15,29.91,3,0,0,0.00
2013-4-4,55,52,49,54,50,46,96,93,84,29.91,29.61,6,1,0,0.00
2013-4-5,55,51,47,51,49,46,96,92,82,29.83,29.68,7,4,0,0.00
2013-4-6,52,47,45,48,45,43,96,93,81,29.89,29.66,7,4,0,0.00
2013-4-7,46,43,39,45,42,38,97,96,95,29.86,29.47,3,0,0,0.00
2013-4-8,54,46,42,50,44,41,97,92,78,30.23,29.85,3,1,0,0.00
2013-4-9,54,48,42,46,43,40,95,84,68,30.32,30.15,3,1,0,0.00
2013-4-10,56,51,47,53,47,44,96,87,75,30.22,29.91,8,2,0,0.00
2013-4-11,54,47,43,45,42,38,96,84,67,30.27,30.16,4,1,0,0.00
2013-4-12,46,43,40,43,40,37,96,90,78,30.16,29.64,7,2,0,0.00
2013-4-13,48,41,36,45,40,35,96,93,83,29.97,29.72,6,2,0,0.00
2013-4-14,53,45,39,43,40,37,96,83,54,29.98,29.88,2,0,0,0.00
2013-4-15,55,45,39,44,40,37,97,84,56,30.14,29.91,3,0,0,0.00
2013-4-16,55,44,36,46,39,34,96,83,57,30.36,30.14,2,0,0,0.00
2013-4-17,60,46,36,44,39,34,94,77,43,30.43,30.36,5,1,0,0.00
2013-4-18,51,47,44,48,44,39,96,88,79,30.42,30.17,5,2,0,0.00
2013-4-19,53,50,47,52,49,46,96,96,95,30.18,30.03,7,2,0,0.00
2013-4-20,54,49,46,50,47,44,96,92,81,30.24,30.16,4,1,0,0.00
2013-4-21,52,46,41,47,44,38,96,91,75,30.33,30.20,3,0,0,0.00
2013-4-22,60,46,35,45,36,29,100,73,37,30.49,30.33,3,1,0,0.00
2013-4-23,62,47,35,42,37,32,94,71,35,30.39,30.21,2,0,0,0.00
2013-4-24,69,52,38,45,39,35,95,67,30,30.29,30.02,2,0,0,0.00
2013-4-25,72,54,41,46,42,38,89,65,36,30.10,30.01,2,0,0,0.00
2013-4-26,65,55,45,52,48,43,94,78,61,30.22,30.09,4,1,0,0.00
2013-4-27,55,53,51,50,46,41,92,78,61,30.19,30.11,6,2,0,0.00
2013-4-28,58,50,46,52,46,42,96,86,65,30.18,29.91,6,2,0,0.00
2013-4-29,55,47,42,46,41,36,95,80,50,30.13,29.87,6,1,0,0.00
2013-4-30,55,45,37,42,37,31,95,77,42,30.41,30.13,2,0,0,0.00
2013-5-1,64,47,34,41,36,32,94,69,34,30.55,30.41,2,0,0,0.00
2013-5-2,68,53,41,48,42,38,90,67,45,30.51,30.34,3,1,0,0.00
2013-5-3,71,55,42,52,46,39,94,71,47,30.36,30.19,2,0,0,0.00
2013-5-4,77,60,45,54,47,42,93,66,32,30.20,29.96,3,1,0,0.00
2013-5-5,83,63,47,55,48,44,90,64,30,29.96,29.73,3,0,0,0.00
2013-5-6,86,65,52,56,49,45,85,60,29,29.81,29.70,2,0,0,0.00
2013-5-7,71,60,52,57,52,48,92,76,57,29.95,29.76,4,2,0,0.00
2013-5-8,67,57,51,56,52,48,92,83,66,30.11,29.95,3,1,0,0.00
2013-5-9,71,58,49,58,52,47,95,83,55,30.19,30.07,3,1,0,0.00
2013-5-10,78,60,48,59,50,-100,95,76,44,30.16,30.06,3,0,0,0.00
2013-5-11,82,63,55,58,51,-100,86,66,43,30.13,29.94,4,1,0,0.00
2013-5-12,71,63,58,60,57,52,98,82,63,30.06,29.97,5,2,0,0.00
2013-5-13,65,57,50,58,52,43,95,85,67,30.15,29.89,11,4,0,0.00
2013-5-14,66,55,47,47,44,41,87,69,42,30.19,30.08,4,1,0,0.00
2013-5-15,64,53,44,52,46,41,95,80,52,30.09,29.98,5,1,0,0.00
2013-5-16,70,56,52,55,37,-100,96,80,52,29.98,29.82,3,0,0,0.00
2013-5-17,64,56,52,54,48,-100,93,82,65,30.01,29.91,4,2,0,0.00
2013-5-18,62,56,51,53,49,47,89,77,59,30.23,30.01,4,1,0,0.00
2013-5-19,64,56,51,53,50,46,90,80,62,30.36,30.23,2,0,0,0.00
2013-5-20,69,55,44,53,48,42,95,79,52,30.32,29.87,3,1,0,0.00
2013-5-21,57,50,46,51,47,44,96,89,75,29.87,29.74,5,1,0,0.00
2013-5-22,53,48,44,50,46,43,95,91,81,29.90,29.82,3,1,0,0.00
2013-5-23,58,49,45,49,46,43,96,88,64,29.99,29.89,5,1,0,0.00
2013-5-24,66,53,45,52,47,43,96,81,52,30.01,29.94,4,1,0,0.00
2013-5-25,66,56,50,50,48,46,91,77,53,30.01,29.93,4,1,0,0.00
2013-5-26,66,56,50,56,52,48,95,85,69,29.95,29.91,4,1,0,0.00
2013-5-27,60,55,50,57,53,48,96,92,85,29.93,29.68,3,0,0,0.00
2013-5-28,64,56,51,54,51,48,96,85,66,29.85,29.73,5,3,0,0.00
2013-5-29,61,53,49,54,50,47,96,91,72,29.93,29.65,5,1,0,0.00
2013-5-30,63,55,48,51,48,45,92,79,60,30.20,29.93,6,4,0,0.00
2013-5-31,67,56,50,51,48,45,91,75,48,30.31,30.20,3,1,0,0.00
2013-6-1,73,59,50,54,49,45,89,71,40,30.21,30.01,3,1,0,0.00
2013-6-2,70,60,52,54,52,48,95,75,51,30.05,30.00,3,0,0,0.00
2013-6-3,72,60,51,57,52,48,94,78,52,30.09,30.02,3,1,0,0.00
2013-6-4,79,63,48,59,53,46,95,73,42,30.09,29.98,2,0,0,0.00
2013-6-5,78,64,52,61,54,47,84,71,53,30.05,29.98,3,1,0,0.00
2013-6-6,79,63,51,59,52,46,94,69,37,30.02,29.96,3,1,0,0.00
2013-6-7,67,60,56,57,50,44,81,68,53,30.11,29.98,4,1,0,0.00
2013-6-8,69,59,53,55,50,47,84,74,58,30.15,30.06,1,0,0,0.00
2013-6-9,68,58,50,52,49,46,91,74,54,30.08,29.98,4,0,0,0.00
2013-6-10,71,58,47,52,48,43,91,71,44,30.01,29.84,3,1,0,0.00
2013-6-11,65,57,53,56,49,46,91,74,58,30.06,29.90,6,2,0,0.00
2013-6-12,68,58,52,52,49,47,91,72,51,30.11,30.06,5,2,0,0.00
2013-6-13,70,58,52,55,50,47,96,78,47,30.19,30.10,3,0,0,0.00
2013-6-14,67,59,54,54,50,48,84,73,57,30.20,30.02,5,2,0,0.00
2013-6-15,75,62,47,57,52,45,95,74,50,30.02,29.88,2,0,0,0.00
2013-6-16,76,63,55,62,55,52,90,76,57,30.04,29.94,4,1,0,0.00
2013-6-17,78,63,56,57,54,51,88,74,41,30.05,29.84,6,2,0,0.00
2013-6-18,72,61,55,55,52,45,93,74,40,29.94,29.83,4,1,0,0.00
2013-6-19,65,59,55,58,53,50,92,80,66,29.97,29.88,3,1,0,0.00
2013-6-20,59,56,53,56,52,50,97,88,76,30.05,29.92,4,2,0,0.00
2013-6-21,65,64,64,55,54,53,69,68,67,30.12,30.11,2,1,0,0.00
2013-6-22,77,67,50,56,55,49,96,67,48,30.06,29.81,3,1,0,0.00
2013-6-23,71,64,59,64,59,55,95,84,74,29.81,29.55,2,0,0,0.00
2013-6-24,70,62,56,62,57,54,97,85,63,29.66,29.54,6,2,0,0.00
2013-6-25,76,62,56,61,57,54,97,86,49,29.82,29.64,4,1,0,0.00
2013-6-26,74,63,56,63,58,55,97,85,65,30.04,29.81,5,1,0,0.00
2013-6-27,71,64,59,65,61,57,97,89,77,30.16,30.01,2,0,0,0.00
2013-6-28,87,70,59,67,63,58,97,82,48,30.16,29.99,4,1,0,0.00
2013-6-29,84,72,64,66,63,57,91,73,51,30.06,29.94,3,1,0,0.00
2013-6-30,92,73,60,69,63,56,91,72,43,29.97,29.80,1,0,0,0.00
2013-7-1,88,74,63,68,63,58,88,69,47,29.97,29.86,3,0,0,0.00
2013-7-2,81,69,60,65,58,52,88,69,43,30.06,29.96,3,0,0,0.00
2013-7-3,77,65,59,59,52,48,75,64,45,30.11,30.00,2,0,0,0.00
2013-7-4,60,58,57,53,52,50,85,79,74,30.06,30.03,0,0,0,0.00
2013-7-6,79,74,62,61,58,54,74,58,46,29.89,29.82,2,1,0,0.00
2013-7-7,76,66,56,62,58,52,93,77,59,29.91,29.83,5,1,0,0.00
2013-7-8,78,64,57,62,57,54,90,77,50,30.05,29.89,4,2,0,0.00
2013-7-9,84,68,56,62,57,53,93,71,45,30.07,29.96,3,1,0,0.00
2013-7-10,73,62,56,60,53,-100,87,75,60,30.03,29.91,5,1,0,0.00
2013-7-11,69,60,55,54,51,48,87,72,56,30.05,29.95,2,0,0,0.00
2013-7-12,67,58,49,56,50,46,89,78,62,30.07,29.98,3,0,0,0.00
2013-7-13,76,62,47,56,50,44,93,69,42,30.16,30.07,3,0,0,0.00
2013-7-14,81,62,49,56,50,46,93,68,35,30.09,29.94,4,0,0,0.00
2013-7-15,80,65,52,58,52,48,91,66,42,30.01,29.85,2,0,0,0.00
2013-7-16,87,68,55,59,54,49,87,63,35,29.86,29.75,1,0,0,0.00
2013-7-17,70,66,60,60,57,55,88,75,63,30.14,29.83,5,2,0,0.00
2013-7-18,78,65,58,61,57,54,91,76,55,30.19,30.07,3,1,0,0.00
2013-7-19,81,64,53,63,57,51,96,79,53,30.13,29.99,3,0,0,0.00
2013-7-20,76,62,54,62,56,-100,95,82,61,30.05,29.91,3,1,0,0.00
2013-7-21,76,64,57,62,58,54,94,81,61,29.94,29.86,4,1,0,0.00
2013-7-22,77,65,57,62,58,55,95,80,58,30.02,29.89,3,1,0,0.00
2013-7-23,82,65,55,63,56,53,94,76,43,30.02,29.92,3,0,0,0.00
2013-7-24,82,64,56,59,54,51,92,73,44,30.01,29.96,2,0,0,0.00
2013-7-25,83,67,54,57,53,49,88,62,34,30.05,29.98,2,0,0,0.00
2013-7-26,80,63,54,57,52,49,90,70,34,30.11,30.03,3,0,0,0.00
2013-7-27,77,64,53,56,52,48,90,67,46,30.12,29.95,4,1,0,0.00
2013-7-28,70,61,55,57,54,51,91,78,63,29.99,29.91,6,2,0,0.00
2013-7-29,75,64,57,59,55,53,86,74,54,30.02,29.91,3,1,0,0.00
2013-7-30,76,66,57,60,57,53,91,73,55,30.15,30.01,4,1,0,0.00
2013-7-31,70,62,57,62,58,54,94,87,72,30.14,30.01,2,0,0,0.00
2013-8-1,66,61,55,59,56,53,95,84,74,30.08,30.05,4,2,0,0.00
2013-8-2,61,59,57,59,57,54,98,93,83,30.15,30.07,4,1,0,0.00
2013-8-3,74,64,59,63,60,55,98,86,67,30.15,30.06,2,0,0,0.00
2013-8-4,81,67,54,65,59,52,97,78,55,30.08,29.95,1,0,0,0.00
2013-8-5,85,69,57,63,58,54,94,71,38,30.03,29.93,3,0,0,0.00
2013-8-6,87,67,55,61,55,51,91,69,34,30.02,29.92,3,0,0,0.00
2013-8-7,85,68,55,61,56,52,93,69,39,30.03,29.95,3,1,0,0.00
2013-8-8,81,67,59,63,58,54,92,76,52,30.05,29.96,5,1,0,0.00
2013-8-9,82,68,56,62,57,52,89,69,48,29.97,29.85,3,1,0,0.00
2013-8-10,77,67,60,65,62,59,96,84,64,30.02,29.90,4,1,0,0.00
2013-8-11,75,66,59,61,57,55,90,75,55,30.08,30.00,4,1,0,0.00
2013-8-12,77,65,57,60,57,53,91,76,53,30.09,30.02,3,1,0,0.00
2013-8-13,81,66,56,59,54,-100,93,72,42,30.12,29.94,4,1,0,0.00
2013-8-14,79,65,56,63,56,-100,94,78,51,29.98,29.92,4,1,0,0.00
2013-8-15,68,58,63,67,44,-100,96,87,86,30.01,29.93,2,0,0,0.00
2013-8-16,83,68,61,66,57,-100,98,79,43,30.02,29.95,3,1,0,0.00
2013-8-17,78,68,62,63,57,-100,84,71,57,30.09,30.02,5,2,0,0.00
2013-8-18,78,66,60,62,57,53,87,74,55,30.14,30.09,5,1,0,0.00
2013-8-19,79,63,59,61,46,-100,83,69,53,30.12,30.07,3,1,0,0.00
2013-8-20,75,64,56,59,52,-100,86,69,52,30.18,30.09,2,0,0,0.00
2013-8-21,80,64,50,58,53,47,93,69,44,30.11,29.95,2,0,0,0.00
2013-8-22,84,69,55,60,56,52,90,65,41,29.96,29.81,3,0,0,0.00
2013-8-23,75,67,61,60,58,56,87,73,58,29.91,29.83,5,3,0,0.00
2013-8-24,77,65,59,59,55,-100,93,74,46,29.94,29.86,3,1,0,0.00
2013-8-25,72,62,52,61,56,50,95,81,60,29.96,29.88,2,0,0,0.00
2013-8-26,75,64,59,62,59,53,94,83,52,29.97,29.87,4,1,0,0.00
2013-8-27,75,63,61,62,59,57,92,86,64,29.97,29.89,2,0,0,0.00
2013-8-28,77,72,64,66,63,61,97,75,59,29.90,29.86,3,1,0,0.00
2013-8-29,73,66,63,68,64,62,97,93,80,30.03,29.87,3,1,0,0.00
2013-8-30,78,67,59,63,58,54,95,77,46,30.16,30.02,4,2,0,0.00
2013-8-31,79,64,53,62,55,-100,96,76,53,30.10,29.85,1,0,0,0.00
2013-9-1,81,68,57,62,59,55,96,76,52,29.90,29.80,4,1,0,0.00
2013-9-2,81,69,59,62,59,56,93,71,49,29.95,29.87,4,1,0,0.00
2013-9-3,72,64,61,65,62,57,97,91,72,30.04,29.95,2,0,0,0.00
2013-9-4,68,62,58,63,60,57,97,92,82,30.06,30.01,2,0,0,0.00
2013-9-5,66,61,58,64,59,57,100,94,85,30.06,29.94,1,0,0,0.00
2013-9-6,71,63,60,65,61,59,97,93,78,30.12,29.96,3,1,0,0.00
2013-9-7,72,63,59,63,58,-100,96,87,71,30.12,30.03,3,0,0,0.00
2013-9-8,77,64,56,65,59,55,97,86,61,30.13,30.04,2,0,0,0.00
2013-9-9,77,64,57,65,60,56,97,86,62,30.09,29.99,2,0,0,0.00
2013-9-10,77,64,56,66,60,54,97,86,66,30.01,29.90,1,0,0,0.00
2013-9-11,91,69,57,66,60,55,96,76,39,29.95,29.88,0,0,0,0.00
2013-9-12,78,68,61,65,61,58,96,80,58,30.01,29.91,3,0,0,0.00
2013-9-13,65,62,59,62,60,57,97,92,87,29.98,29.89,2,0,0,0.00
2013-9-14,71,63,60,64,59,-100,96,89,78,29.90,29.75,1,0,0,0.00
2013-9-15,64,61,58,63,60,57,97,96,92,29.83,29.73,3,1,0,0.00
2013-9-16,70,61,57,62,58,54,97,90,72,29.95,29.83,5,2,0,0.00
2013-9-17,61,58,54,55,54,52,94,87,75,29.96,29.89,1,0,0,0.00
2013-9-18,58,54,53,53,52,50,97,92,78,30.08,29.96,0,0,0,0.00
2013-9-19,77,57,46,55,50,45,96,78,45,30.07,29.78,2,0,0,0.00
2013-9-20,73,60,52,58,53,49,95,79,53,29.78,29.61,5,1,0,0.00
2013-9-21,68,60,57,58,54,-100,95,82,63,29.73,29.66,5,1,0,0.00
2013-9-22,60,57,55,56,53,50,95,87,70,29.75,29.60,7,4,0,0.00
2013-9-23,61,55,50,55,52,48,94,90,79,29.99,29.75,7,3,0,0.00
2013-9-24,63,54,50,52,50,47,97,88,63,29.98,29.86,4,1,0,0.00
2013-9-25,57,51,46,52,49,44,97,92,73,30.06,29.88,1,0,0,0.00
2013-9-26,61,50,43,53,47,42,97,89,67,30.16,30.05,3,0,0,0.00
2013-9-27,55,53,48,53,50,46,95,91,86,30.15,29.88,4,2,0,0.00
2013-9-28,59,54,51,58,52,-100,97,95,90,29.87,29.37,8,4,0,0.00
2013-9-29,54,52,51,52,50,49,96,93,85,29.59,29.19,9,4,0,0.00
2013-9-30,57,52,48,52,49,45,96,90,80,29.90,29.44,9,5,0,0.00
2013-10-1,54,52,51,48,48,47,89,86,79,30.13,30.09,5,3,0,0.00
2013-10-2,53,50,48,50,48,46,96,92,84,30.19,30.09,4,1,0,0.00
2013-10-3,58,50,45,50,48,43,97,90,72,30.47,30.19,2,0,0,0.00
2013-10-4,62,48,39,51,44,38,100,88,61,30.51,30.38,2,0,0,0.00
2013-10-5,68,54,42,52,47,41,97,81,54,30.38,30.15,1,0,0,0.00
2013-10-6,71,53,42,55,47,41,97,83,45,30.16,29.90,4,1,0,0.00
2013-10-7,59,54,51,52,50,47,96,87,67,30.03,29.91,7,4,0,0.00
2013-10-8,53,50,43,51,47,41,94,89,76,30.10,29.99,3,1,0,0.00
2013-10-9,57,46,38,49,43,37,100,90,70,30.17,29.98,2,0,0,0.00
2013-10-10,58,50,45,51,47,43,96,89,71,30.09,29.96,2,0,0,0.00
2013-10-11,53,50,47,51,48,45,97,94,90,30.17,30.09,1,0,0,0.00
2013-10-12,55,49,44,52,46,-100,97,92,80,30.24,30.09,1,0,0,0.00
2013-10-13,54,46,40,50,44,39,97,93,82,30.39,30.24,0,0,0,0.00
2013-10-14,57,45,37,50,42,36,97,91,70,30.46,30.39,0,0,0,0.00
2013-10-15,57,47,38,52,45,37,97,92,78,30.42,30.20,1,0,0,0.00
2013-10-16,53,49,43,50,47,42,97,94,88,30.23,30.18,0,0,0,0.00
2013-10-17,56,49,44,51,47,42,96,93,84,30.30,30.22,0,0,0,0.00
2013-10-18,58,47,42,53,45,41,97,93,83,30.28,30.17,2,0,0,0.00
2013-10-19,50,45,42,49,43,-100,97,95,94,30.22,30.17,0,0,0,0.00
2013-10-20,49,47,45,48,46,44,97,96,94,30.23,30.17,0,0,0,0.00
2013-10-21,51,47,45,49,46,44,97,96,94,30.20,30.13,0,0,0,0.00
2013-10-22,56,48,46,53,47,45,97,95,88,30.15,30.06,0,0,0,0.00
2013-10-23,56,48,43,53,46,42,97,95,87,30.08,30.00,0,0,0,0.00
2013-10-24,51,47,43,50,46,42,97,97,95,30.11,30.04,0,0,0,0.00
2013-10-25,52,49,45,50,47,44,100,95,92,30.34,30.22,1,0,0,0.00
2013-10-26,51,48,45,48,45,-100,97,92,85,30.36,30.22,0,0,0,0.00
2013-10-27,54,48,44,50,46,42,100,94,83,30.22,29.92,2,0,0,0.00
2013-10-28,55,46,40,44,38,-100,97,78,52,29.98,29.91,4,1,0,0.00
2013-10-29,54,41,32,43,37,31,96,86,59,30.07,29.97,2,0,0,0.00
2013-10-30,55,45,36,48,41,34,95,86,74,30.16,30.05,4,1,0,0.00
2013-10-31,53,50,48,51,47,43,96,90,81,30.28,30.12,6,1,0,0.00
2013-11-1,59,53,48,53,50,47,97,92,79,30.29,29.87,2,0,0,0.00
2013-11-2,53,48,44,51,44,-100,97,89,80,29.89,29.51,12,3,0,0.00
2013-11-3,50,43,39,44,40,38,95,90,71,30.13,29.90,3,1,0,0.00
2013-11-4,49,41,32,41,37,31,97,87,66,30.23,30.08,1,0,0,0.00
2013-11-5,53,46,41,50,44,39,97,95,84,30.27,30.04,4,0,0,0.00
2013-11-6,49,46,42,48,44,41,97,96,91,30.35,30.06,2,0,0,0.00
2013-11-7,49,48,47,48,46,45,97,96,92,30.05,29.74,7,3,0,0.00
2013-11-8,52,47,42,47,44,40,97,90,81,30.18,29.99,4,1,0,0.00
2013-11-9,50,43,38,46,40,-100,97,92,83,30.18,30.10,1,0,0,0.00
2013-11-10,48,46,43,47,44,42,98,96,94,30.18,30.11,1,0,0,0.00
2013-11-11,56,47,41,50,45,40,97,93,78,30.19,30.02,1,0,0,0.00
2013-11-12,57,51,45,55,49,43,97,94,90,30.37,30.05,6,1,0,0.00
2013-11-13,54,51,49,50,49,46,96,92,84,30.46,30.34,4,1,0,0.00
2013-11-14,49,46,43,47,45,42,97,96,92,30.33,30.09,1,0,0,0.00
2013-11-15,46,44,42,45,43,41,98,96,94,30.08,29.34,9,3,0,0.00
2013-11-16,47,42,40,43,38,-100,98,89,78,29.78,29.37,5,2,0,0.00
2013-11-17,50,46,43,47,44,39,93,90,85,29.92,29.79,9,4,0,0.00
2013-11-18,50,48,46,49,47,44,98,96,92,29.92,29.57,4,2,0,0.00
2013-11-19,52,43,37,51,39,27,98,88,63,30.08,29.57,8,1,0,0.00
2013-11-20,41,34,28,32,28,25,94,80,59,30.53,30.09,1,0,0,0.00
2013-11-21,41,31,25,31,26,23,95,83,57,30.70,30.54,0,0,0,0.00
2013-11-22,44,34,26,32,29,24,93,82,58,30.68,30.49,0,0,0,0.00
2013-11-23,49,37,29,38,30,-100,93,82,56,30.49,30.23,1,0,0,0.00
2013-11-24,49,38,30,42,35,28,96,90,74,30.28,30.20,1,0,0,0.00
2013-11-25,49,38,31,42,36,30,97,90,76,30.35,30.28,1,0,0,0.00
2013-11-26,48,40,33,43,38,32,97,92,77,30.29,30.13,1,0,0,0.00
2013-11-27,53,45,37,44,40,35,94,85,69,30.13,29.98,1,0,0,0.00
2013-11-28,45,38,32,44,37,31,97,96,94,30.20,30.05,1,0,0,0.00
2013-12-2,44,39,36,40,36,34,96,89,71,30.07,29.83,3,1,0,0.00
2013-12-3,37,32,27,36,27,24,96,82,63,30.34,30.07,2,0,0,0.00
2013-12-4,36,28,23,30,24,22,95,88,67,30.39,30.33,0,0,0,0.00
2013-12-5,33,26,21,26,22,16,94,83,61,30.35,30.22,1,0,0,0.00
2013-12-6,31,25,20,17,14,10,78,64,49,30.27,30.18,0,0,0,0.00
2013-12-7,28,20,15,12,8,-100,76,61,40,30.46,30.27,1,0,0,0.00
2013-12-8,31,23,16,19,16,10,83,74,58,30.61,30.46,0,0,0,0.00
2013-12-9,32,27,19,25,20,15,86,76,66,30.62,30.52,0,0,0,0.00
2013-12-10,38,34,31,34,30,26,91,85,77,30.53,30.44,1,0,0,0.00
2013-12-11,39,32,28,36,30,27,95,92,85,30.45,30.20,1,0,0,0.00
2013-12-12,43,36,30,40,34,28,97,93,76,30.20,30.09,5,1,0,0.00
2013-12-13,46,44,41,45,43,40,97,97,97,30.44,30.15,3,1,0,0.00
2013-12-14,47,44,42,45,42,-100,97,94,91,30.46,30.35,4,1,0,0.00
2013-12-15,49,47,46,48,46,44,97,96,90,30.47,30.34,5,2,0,0.00
2013-12-16,46,43,39,45,42,38,98,97,97,30.52,30.30,0,0,0,0.00
2013-12-17,43,40,38,42,39,37,98,97,96,30.30,30.14,2,0,0,0.00
2013-12-18,42,40,31,41,38,29,97,94,83,30.18,30.05,1,0,0,0.00
2013-12-19,37,31,26,31,28,25,96,90,74,30.38,30.17,1,0,0,0.00
2013-12-20,40,34,30,39,33,28,97,95,91,30.24,29.75,6,1,0,0.00
2013-12-21,43,40,38,42,38,-100,97,96,97,30.19,29.85,0,0,0,0.00
2013-12-22,48,46,43,47,45,42,97,97,97,30.31,30.18,6,1,0,0.00
2013-12-23,51,47,41,49,46,39,97,96,92,30.54,30.14,8,3,0,0.00
2013-12-24,45,39,34,42,37,33,97,95,86,30.65,30.53,1,0,0,0.00
2013-12-25,37,33,31,36,32,30,97,97,96,30.57,30.43,0,0,0,0.00
2013-12-26,41,36,32,40,35,31,98,97,97,30.43,30.24,1,0,0,0.00
2013-12-27,44,38,32,43,37,31,97,97,97,30.39,30.15,3,0,0,0.00
2013-12-28,45,41,36,44,39,-100,98,96,96,30.54,30.40,0,0,0,0.00
2013-12-29,42,39,37,41,38,36,98,97,97,30.50,30.34,1,0,0,0.00
2013-12-30,42,40,36,41,39,35,98,97,97,30.35,30.15,1,0,0,0.00
2013-12-31,45,42,38,44,41,37,97,97,96,30.40,30.21,2,0,0,0.00
2014-1-1,43,39,34,42,38,33,98,97,97,30.43,30.27,1,0,0,0.00
2014-1-2,47,44,40,45,42,39,98,95,86,30.27,29.92,6,1,0,0.00